WITT/BTJ METAR and TAF weather

Enter ICAO airport designator
Station Type Date Time Source
WITT METAR UTC NOAA

Error!


Station Type Date Time Source
WITT Decoded METAR UTC NOAA

Error!

Station Type Date Time Source
WITT TAF 2019/04/25 06:00 UTC NOAA

TAF WITT 250500Z 2506/2606 12009KT 9000 SCT017 PROB30
TEMPO 2509/2513 3000 TSRA FEW016CB
BECMG 2523/2601 00000KT 7000

Example: see airport list